sensor_id;sensor_type;location;lat;lon;timestamp;temperature;humidity
8557;DHT22;4316;53.840;10.762;2022-08-11T00:02:32;18.60;99.90
8557;DHT22;4316;53.840;10.762;2022-08-11T00:05:07;18.60;99.90
8557;DHT22;4316;53.840;10.762;2022-08-11T00:07:39;18.50;99.90
8557;DHT22;4316;53.840;10.762;2022-08-11T00:10:13;18.50;99.90
8557;DHT22;4316;53.840;10.762;2022-08-11T00:12:40;18.50;99.90
8557;DHT22;4316;53.840;10.762;2022-08-11T00:15:07;18.50;99.90
8557;DHT22;4316;53.840;10.762;2022-08-11T00:17:34;18.40;99.90
8557;DHT22;4316;53.840;10.762;2022-08-11T00:20:11;18.50;99.90
8557;DHT22;4316;53.840;10.762;2022-08-11T00:22:39;18.40;99.90
8557;DHT22;4316;53.840;10.762;2022-08-11T00:25:11;18.40;99.90
8557;DHT22;4316;53.840;10.762;2022-08-11T00:27:39;18.30;99.90
8557;DHT22;4316;53.840;10.762;2022-08-11T00:30:07;18.30;99.90
8557;DHT22;4316;53.840;10.762;2022-08-11T00:32:34;18.30;99.90
8557;DHT22;4316;53.840;10.762;2022-08-11T00:35:02;18.30;99.90
8557;DHT22;4316;53.840;10.762;2022-08-11T00:37:28;18.20;99.90
8557;DHT22;4316;53.840;10.762;2022-08-11T00:39:55;18.20;99.90
8557;DHT22;4316;53.840;10.762;2022-08-11T00:42:55;18.20;99.90
8557;DHT22;4316;53.840;10.762;2022-08-11T00:45:40;18.10;99.90
8557;DHT22;4316;53.840;10.762;2022-08-11T00:48:31;18.10;99.90
8557;DHT22;4316;53.840;10.762;2022-08-11T00:53:35;18.10;99.90
8557;DHT22;4316;53.840;10.762;2022-08-11T01:01:25;17.90;99.90
8557;DHT22;4316;53.840;10.762;2022-08-11T01:04:38;17.90;99.90
8557;DHT22;4316;53.840;10.762;2022-08-11T01:16:10;17.80;99.90
8557;DHT22;4316;53.840;10.762;2022-08-11T01:36:38;17.60;99.90
8557;DHT22;4316;53.840;10.762;2022-08-11T01:39:30;17.50;99.90
8557;DHT22;4316;53.840;10.762;2022-08-11T01:45:28;17.50;99.90
8557;DHT22;4316;53.840;10.762;2022-08-11T01:48:47;17.40;99.90
8557;DHT22;4316;53.840;10.762;2022-08-11T01:54:08;17.30;99.90
8557;DHT22;4316;53.840;10.762;2022-08-11T01:56:52;17.20;99.90
8557;DHT22;4316;53.840;10.762;2022-08-11T01:59:31;17.20;99.90
8557;DHT22;4316;53.840;10.762;2022-08-11T02:02:21;17.20;99.90
8557;DHT22;4316;53.840;10.762;2022-08-11T02:05:16;17.20;99.90
8557;DHT22;4316;53.840;10.762;2022-08-11T02:11:16;17.10;99.90
8557;DHT22;4316;53.840;10.762;2022-08-11T02:14:11;17.10;99.90
8557;DHT22;4316;53.840;10.762;2022-08-11T02:16:56;17.00;99.90
8557;DHT22;4316;53.840;10.762;2022-08-11T02:22:35;17.00;99.90
8557;DHT22;4316;53.840;10.762;2022-08-11T02:25:41;16.90;99.90
8557;DHT22;4316;53.840;10.762;2022-08-11T02:28:18;16.90;99.90
8557;DHT22;4316;53.840;10.762;2022-08-11T02:31:12;16.90;99.90
8557;DHT22;4316;53.840;10.762;2022-08-11T02:40:15;16.70;99.90
8557;DHT22;4316;53.840;10.762;2022-08-11T02:45:46;16.70;99.90
8557;DHT22;4316;53.840;10.762;2022-08-11T02:48:28;16.70;99.90
8557;DHT22;4316;53.840;10.762;2022-08-11T02:51:41;16.60;99.90
8557;DHT22;4316;53.840;10.762;2022-08-11T02:54:22;16.60;99.90
8557;DHT22;4316;53.840;10.762;2022-08-11T02:57:08;16.60;99.90
8557;DHT22;4316;53.840;10.762;2022-08-11T02:59:54;16.50;99.90
8557;DHT22;4316;53.840;10.762;2022-08-11T03:02:48;16.50;99.90
8557;DHT22;4316;53.840;10.762;2022-08-11T03:05:22;16.50;99.90
8557;DHT22;4316;53.840;10.762;2022-08-11T03:08:04;16.50;99.90
8557;DHT22;4316;53.840;10.762;2022-08-11T03:13:20;16.40;99.90
8557;DHT22;4316;53.840;10.762;2022-08-11T03:16:18;16.30;99.90
8557;DHT22;4316;53.840;10.762;2022-08-11T03:19:33;16.30;99.90
8557;DHT22;4316;53.840;10.762;2022-08-11T03:24:59;16.20;99.90
8557;DHT22;4316;53.840;10.762;2022-08-11T03:30:09;16.30;99.90
8557;DHT22;4316;53.840;10.762;2022-08-11T03:32:47;16.20;99.90
8557;DHT22;4316;53.840;10.762;2022-08-11T03:35:41;16.20;99.90
8557;DHT22;4316;53.840;10.762;2022-08-11T03:38:13;16.20;99.90
8557;DHT22;4316;53.840;10.762;2022-08-11T03:44:02;16.10;99.90
8557;DHT22;4316;53.840;10.762;2022-08-11T03:46:44;16.10;99.90
8557;DHT22;4316;53.840;10.762;2022-08-11T03:52:22;16.00;99.90
8557;DHT22;4316;53.840;10.762;2022-08-11T04:01:01;15.80;99.90
8557;DHT22;4316;53.840;10.762;2022-08-11T04:04:07;15.80;99.90
8557;DHT22;4316;53.840;10.762;2022-08-11T04:09:55;15.80;99.90
8557;DHT22;4316;53.840;10.762;2022-08-11T04:12:40;15.80;99.90
8557;DHT22;4316;53.840;10.762;2022-08-11T04:21:35;15.80;99.90
8557;DHT22;4316;53.840;10.762;2022-08-11T04:27:40;15.80;99.90
8557;DHT22;4316;53.840;10.762;2022-08-11T04:30:40;15.80;99.90
8557;DHT22;4316;53.840;10.762;2022-08-11T04:42:05;15.80;99.90
8557;DHT22;4316;53.840;10.762;2022-08-11T04:51:42;15.80;99.90
8557;DHT22;4316;53.840;10.762;2022-08-11T04:55:13;15.80;99.90
8557;DHT22;4316;53.840;10.762;2022-08-11T04:58:20;15.80;99.90
8557;DHT22;4316;53.840;10.762;2022-08-11T05:13:11;15.90;99.90
8557;DHT22;4316;53.840;10.762;2022-08-11T05:16:10;16.00;99.90
8557;DHT22;4316;53.840;10.762;2022-08-11T05:18:55;16.20;99.90
8557;DHT22;4316;53.840;10.762;2022-08-11T05:21:45;16.30;99.90
8557;DHT22;4316;53.840;10.762;2022-08-11T05:24:42;16.50;99.90
8557;DHT22;4316;53.840;10.762;2022-08-11T05:27:37;16.60;99.90
8557;DHT22;4316;53.840;10.762;2022-08-11T05:30:28;16.70;99.90
8557;DHT22;4316;53.840;10.762;2022-08-11T05:33:29;16.80;99.90
8557;DHT22;4316;53.840;10.762;2022-08-11T05:39:27;17.00;99.90
8557;DHT22;4316;53.840;10.762;2022-08-11T05:42:16;17.00;99.90
8557;DHT22;4316;53.840;10.762;2022-08-11T05:45:04;17.10;99.90
8557;DHT22;4316;53.840;10.762;2022-08-11T05:47:53;17.30;99.90
8557;DHT22;4316;53.840;10.762;2022-08-11T05:50:38;17.40;99.90
8557;DHT22;4316;53.840;10.762;2022-08-11T05:53:23;17.60;99.90
8557;DHT22;4316;53.840;10.762;2022-08-11T05:56:08;17.80;99.90
8557;DHT22;4316;53.840;10.762;2022-08-11T05:58:54;18.00;99.90
8557;DHT22;4316;53.840;10.762;2022-08-11T06:01:29;18.20;99.90
8557;DHT22;4316;53.840;10.762;2022-08-11T06:03:57;18.40;99.90
8557;DHT22;4316;53.840;10.762;2022-08-11T06:09:45;18.80;99.90
8557;DHT22;4316;53.840;10.762;2022-08-11T06:12:22;19.10;99.90
8557;DHT22;4316;53.840;10.762;2022-08-11T06:14:55;19.40;99.90
8557;DHT22;4316;53.840;10.762;2022-08-11T06:17:29;19.70;99.90
8557;DHT22;4316;53.840;10.762;2022-08-11T06:20:00;19.90;99.90
8557;DHT22;4316;53.840;10.762;2022-08-11T06:22:26;20.20;99.90
8557;DHT22;4316;53.840;10.762;2022-08-11T06:24:55;20.40;99.90
8557;DHT22;4316;53.840;10.762;2022-08-11T06:27:22;20.60;99.90
8557;DHT22;4316;53.840;10.762;2022-08-11T06:29:50;20.90;99.90
8557;DHT22;4316;53.840;10.762;2022-08-11T06:32:16;21.10;99.90
8557;DHT22;4316;53.840;10.762;2022-08-11T06:35:02;21.30;99.90
8557;DHT22;4316;53.840;10.762;2022-08-11T06:43:24;22.10;99.90
8557;DHT22;4316;53.840;10.762;2022-08-11T06:45:59;22.50;99.90
8557;DHT22;4316;53.840;10.762;2022-08-11T06:48:30;22.70;99.90
8557;DHT22;4316;53.840;10.762;2022-08-11T06:51:01;23.10;99.90
8557;DHT22;4316;53.840;10.762;2022-08-11T06:53:56;23.30;99.90
8557;DHT22;4316;53.840;10.762;2022-08-11T06:56:39;23.50;99.90
8557;DHT22;4316;53.840;10.762;2022-08-11T06:59:25;23.70;99.90
8557;DHT22;4316;53.840;10.762;2022-08-11T07:02:24;23.90;99.80
8557;DHT22;4316;53.840;10.762;2022-08-11T07:07:51;24.40;99.20
8557;DHT22;4316;53.840;10.762;2022-08-11T07:11:15;24.50;99.30
8557;DHT22;4316;53.840;10.762;2022-08-11T07:14:03;24.80;98.50
8557;DHT22;4316;53.840;10.762;2022-08-11T07:16:49;24.90;98.30
8557;DHT22;4316;53.840;10.762;2022-08-11T07:19:27;25.10;98.00
8557;DHT22;4316;53.840;10.762;2022-08-11T07:22:13;25.40;96.90
8557;DHT22;4316;53.840;10.762;2022-08-11T07:25:07;25.60;97.20
8557;DHT22;4316;53.840;10.762;2022-08-11T07:28:03;25.70;96.60
8557;DHT22;4316;53.840;10.762;2022-08-11T07:30:48;26.00;96.00
8557;DHT22;4316;53.840;10.762;2022-08-11T07:33:26;26.30;95.30
8557;DHT22;4316;53.840;10.762;2022-08-11T07:35:55;26.50;95.10
8557;DHT22;4316;53.840;10.762;2022-08-11T07:38:24;26.60;95.00
8557;DHT22;4316;53.840;10.762;2022-08-11T07:41:18;26.60;94.50
8557;DHT22;4316;53.840;10.762;2022-08-11T07:43:47;26.90;94.40
8557;DHT22;4316;53.840;10.762;2022-08-11T07:46:14;27.10;94.40
8557;DHT22;4316;53.840;10.762;2022-08-11T07:48:59;27.40;94.20
8557;DHT22;4316;53.840;10.762;2022-08-11T07:51:44;27.80;93.40
8557;DHT22;4316;53.840;10.762;2022-08-11T07:54:29;27.80;92.90
8557;DHT22;4316;53.840;10.762;2022-08-11T07:56:55;27.60;93.20
8557;DHT22;4316;53.840;10.762;2022-08-11T07:59:22;27.80;92.90
8557;DHT22;4316;53.840;10.762;2022-08-11T08:02:08;27.90;92.70
8557;DHT22;4316;53.840;10.762;2022-08-11T08:04:53;27.40;92.70
8557;DHT22;4316;53.840;10.762;2022-08-11T08:07:38;27.50;92.70
8557;DHT22;4316;53.840;10.762;2022-08-11T08:10:23;27.50;93.40
8557;DHT22;4316;53.840;10.762;2022-08-11T08:13:07;28.00;92.90
8557;DHT22;4316;53.840;10.762;2022-08-11T08:15:52;28.50;91.90
8557;DHT22;4316;53.840;10.762;2022-08-11T08:18:38;28.30;92.10
8557;DHT22;4316;53.840;10.762;2022-08-11T08:21:05;28.70;91.90
8557;DHT22;4316;53.840;10.762;2022-08-11T08:23:45;29.00;91.70
8557;DHT22;4316;53.840;10.762;2022-08-11T08:26:14;29.20;91.60
8557;DHT22;4316;53.840;10.762;2022-08-11T08:29:04;29.40;90.90
8557;DHT22;4316;53.840;10.762;2022-08-11T08:31:49;29.80;91.00
8557;DHT22;4316;53.840;10.762;2022-08-11T08:34:16;30.00;90.00
8557;DHT22;4316;53.840;10.762;2022-08-11T08:36:43;29.90;90.30
8557;DHT22;4316;53.840;10.762;2022-08-11T08:39:12;30.10;90.20
8557;DHT22;4316;53.840;10.762;2022-08-11T08:41:39;30.30;90.20
8557;DHT22;4316;53.840;10.762;2022-08-11T08:44:10;30.50;90.20
8557;DHT22;4316;53.840;10.762;2022-08-11T08:46:44;30.50;90.10
8557;DHT22;4316;53.840;10.762;2022-08-11T08:49:16;30.80;89.30
8557;DHT22;4316;53.840;10.762;2022-08-11T08:51:43;30.80;89.60
8557;DHT22;4316;53.840;10.762;2022-08-11T08:54:15;30.80;88.70
8557;DHT22;4316;53.840;10.762;2022-08-11T08:56:43;30.80;89.10
8557;DHT22;4316;53.840;10.762;2022-08-11T08:59:11;30.70;88.50
8557;DHT22;4316;53.840;10.762;2022-08-11T09:01:46;30.90;89.10
8557;DHT22;4316;53.840;10.762;2022-08-11T09:04:13;31.00;87.80
8557;DHT22;4316;53.840;10.762;2022-08-11T09:06:40;31.10;88.60
8557;DHT22;4316;53.840;10.762;2022-08-11T09:09:08;30.60;88.20
8557;DHT22;4316;53.840;10.762;2022-08-11T09:11:37;30.70;88.00
8557;DHT22;4316;53.840;10.762;2022-08-11T09:14:16;30.60;88.80
8557;DHT22;4316;53.840;10.762;2022-08-11T09:16:42;30.80;89.10
8557;DHT22;4316;53.840;10.762;2022-08-11T09:19:09;31.10;88.60
8557;DHT22;4316;53.840;10.762;2022-08-11T09:21:39;31.40;88.40
8557;DHT22;4316;53.840;10.762;2022-08-11T09:24:05;31.40;88.00
8557;DHT22;4316;53.840;10.762;2022-08-11T09:26:51;31.10;88.20
8557;DHT22;4316;53.840;10.762;2022-08-11T09:29:28;30.90;89.20
8557;DHT22;4316;53.840;10.762;2022-08-11T09:31:55;30.80;88.60
8557;DHT22;4316;53.840;10.762;2022-08-11T09:34:21;31.10;85.40
8557;DHT22;4316;53.840;10.762;2022-08-11T09:36:47;31.30;84.90
8557;DHT22;4316;53.840;10.762;2022-08-11T09:39:35;31.50;86.00
8557;DHT22;4316;53.840;10.762;2022-08-11T09:42:20;31.30;85.20
8557;DHT22;4316;53.840;10.762;2022-08-11T09:44:47;30.70;83.70
8557;DHT22;4316;53.840;10.762;2022-08-11T09:47:22;30.60;84.60
8557;DHT22;4316;53.840;10.762;2022-08-11T09:49:48;30.80;85.80
8557;DHT22;4316;53.840;10.762;2022-08-11T09:52:17;30.80;85.00
8557;DHT22;4316;53.840;10.762;2022-08-11T09:54:46;31.00;85.30
8557;DHT22;4316;53.840;10.762;2022-08-11T09:57:12;31.10;84.70
8557;DHT22;4316;53.840;10.762;2022-08-11T09:59:56;31.50;85.20
8557;DHT22;4316;53.840;10.762;2022-08-11T10:02:27;30.60;84.90
8557;DHT22;4316;53.840;10.762;2022-08-11T10:04:57;30.60;85.20
8557;DHT22;4316;53.840;10.762;2022-08-11T10:07:49;31.00;85.40
8557;DHT22;4316;53.840;10.762;2022-08-11T10:10:18;31.00;85.00
8557;DHT22;4316;53.840;10.762;2022-08-11T10:12:49;31.00;85.20
8557;DHT22;4316;53.840;10.762;2022-08-11T10:15:18;31.20;85.80
8557;DHT22;4316;53.840;10.762;2022-08-11T10:18:10;31.40;84.20
8557;DHT22;4316;53.840;10.762;2022-08-11T10:21:13;31.10;85.20
8557;DHT22;4316;53.840;10.762;2022-08-11T10:23:40;30.90;86.10
8557;DHT22;4316;53.840;10.762;2022-08-11T10:26:27;30.90;86.40
8557;DHT22;4316;53.840;10.762;2022-08-11T10:29:13;30.90;86.10
8557;DHT22;4316;53.840;10.762;2022-08-11T10:31:58;30.70;85.90
8557;DHT22;4316;53.840;10.762;2022-08-11T10:34:45;31.30;87.90
8557;DHT22;4316;53.840;10.762;2022-08-11T10:37:11;31.10;87.20
8557;DHT22;4316;53.840;10.762;2022-08-11T10:39:38;31.40;87.50
8557;DHT22;4316;53.840;10.762;2022-08-11T10:42:05;30.90;86.40
8557;DHT22;4316;53.840;10.762;2022-08-11T10:44:52;31.20;86.50
8557;DHT22;4316;53.840;10.762;2022-08-11T10:47:18;31.20;85.40
8557;DHT22;4316;53.840;10.762;2022-08-11T10:50:07;30.90;86.30
8557;DHT22;4316;53.840;10.762;2022-08-11T10:52:53;31.20;86.00
8557;DHT22;4316;53.840;10.762;2022-08-11T10:55:38;31.70;86.40
8557;DHT22;4316;53.840;10.762;2022-08-11T10:58:25;31.90;86.60
8557;DHT22;4316;53.840;10.762;2022-08-11T11:01:10;31.90;85.80
8557;DHT22;4316;53.840;10.762;2022-08-11T11:03:36;31.90;85.10
8557;DHT22;4316;53.840;10.762;2022-08-11T11:07:07;32.10;85.90
8557;DHT22;4316;53.840;10.762;2022-08-11T11:09:18;32.10;85.60
8557;DHT22;4316;53.840;10.762;2022-08-11T11:11:53;32.00;85.20
8557;DHT22;4316;53.840;10.762;2022-08-11T11:14:41;31.90;85.30
8557;DHT22;4316;53.840;10.762;2022-08-11T11:17:32;31.80;85.60
8557;DHT22;4316;53.840;10.762;2022-08-11T11:20:25;32.00;85.10
8557;DHT22;4316;53.840;10.762;2022-08-11T11:22:53;32.10;84.70
8557;DHT22;4316;53.840;10.762;2022-08-11T11:25:28;32.10;85.40
8557;DHT22;4316;53.840;10.762;2022-08-11T11:28:27;32.20;84.50
8557;DHT22;4316;53.840;10.762;2022-08-11T11:31:04;32.00;84.00
8557;DHT22;4316;53.840;10.762;2022-08-11T11:34:16;31.90;84.00
8557;DHT22;4316;53.840;10.762;2022-08-11T11:36:55;32.00;84.10
8557;DHT22;4316;53.840;10.762;2022-08-11T11:39:26;32.00;83.80
8557;DHT22;4316;53.840;10.762;2022-08-11T11:41:55;31.80;83.80
8557;DHT22;4316;53.840;10.762;2022-08-11T11:44:22;31.60;83.80
8557;DHT22;4316;53.840;10.762;2022-08-11T11:46:48;31.60;83.40
8557;DHT22;4316;53.840;10.762;2022-08-11T11:49:17;31.70;84.20
8557;DHT22;4316;53.840;10.762;2022-08-11T11:51:45;31.70;84.10
8557;DHT22;4316;53.840;10.762;2022-08-11T11:54:16;31.70;83.10
8557;DHT22;4316;53.840;10.762;2022-08-11T11:56:43;31.80;84.30
8557;DHT22;4316;53.840;10.762;2022-08-11T11:59:11;31.80;83.70
8557;DHT22;4316;53.840;10.762;2022-08-11T12:02:00;31.60;83.30
8557;DHT22;4316;53.840;10.762;2022-08-11T12:04:26;31.50;83.40
8557;DHT22;4316;53.840;10.762;2022-08-11T12:06:53;31.40;83.70
8557;DHT22;4316;53.840;10.762;2022-08-11T12:09:39;31.50;83.60
8557;DHT22;4316;53.840;10.762;2022-08-11T12:12:06;31.60;83.40
8557;DHT22;4316;53.840;10.762;2022-08-11T12:14:51;31.60;84.20
8557;DHT22;4316;53.840;10.762;2022-08-11T12:17:17;31.40;83.70
8557;DHT22;4316;53.840;10.762;2022-08-11T12:19:43;31.50;84.00
8557;DHT22;4316;53.840;10.762;2022-08-11T12:22:09;31.70;82.50
8557;DHT22;4316;53.840;10.762;2022-08-11T12:24:53;31.70;82.60
8557;DHT22;4316;53.840;10.762;2022-08-11T12:27:38;31.80;83.30
8557;DHT22;4316;53.840;10.762;2022-08-11T12:30:05;31.90;82.70
8557;DHT22;4316;53.840;10.762;2022-08-11T12:32:35;31.90;83.10
8557;DHT22;4316;53.840;10.762;2022-08-11T12:35:02;31.70;81.50
8557;DHT22;4316;53.840;10.762;2022-08-11T12:37:36;31.50;82.50
8557;DHT22;4316;53.840;10.762;2022-08-11T12:40:08;31.60;82.60
8557;DHT22;4316;53.840;10.762;2022-08-11T12:42:55;31.80;82.70
8557;DHT22;4316;53.840;10.762;2022-08-11T12:45:59;32.00;82.10
8557;DHT22;4316;53.840;10.762;2022-08-11T12:48:31;31.70;81.60
8557;DHT22;4316;53.840;10.762;2022-08-11T12:51:20;31.70;82.30
8557;DHT22;4316;53.840;10.762;2022-08-11T12:54:12;31.90;82.30
8557;DHT22;4316;53.840;10.762;2022-08-11T12:56:43;31.70;82.40
8557;DHT22;4316;53.840;10.762;2022-08-11T12:59:28;31.40;82.10
8557;DHT22;4316;53.840;10.762;2022-08-11T13:02:18;31.40;81.90
8557;DHT22;4316;53.840;10.762;2022-08-11T13:05:05;31.50;81.90
8557;DHT22;4316;53.840;10.762;2022-08-11T13:07:32;31.10;81.30
8557;DHT22;4316;53.840;10.762;2022-08-11T13:10:00;31.10;82.20
8557;DHT22;4316;53.840;10.762;2022-08-11T13:12:28;30.90;81.90
8557;DHT22;4316;53.840;10.762;2022-08-11T13:15:23;31.00;82.50
8557;DHT22;4316;53.840;10.762;2022-08-11T13:17:51;30.90;82.00
8557;DHT22;4316;53.840;10.762;2022-08-11T13:20:20;30.90;81.30
8557;DHT22;4316;53.840;10.762;2022-08-11T13:22:50;30.90;82.50
8557;DHT22;4316;53.840;10.762;2022-08-11T13:25:18;30.90;81.70
8557;DHT22;4316;53.840;10.762;2022-08-11T13:27:46;30.80;82.10
8557;DHT22;4316;53.840;10.762;2022-08-11T13:30:13;30.70;81.40
8557;DHT22;4316;53.840;10.762;2022-08-11T13:32:59;30.80;82.60
8557;DHT22;4316;53.840;10.762;2022-08-11T13:35:27;30.90;81.80
8557;DHT22;4316;53.840;10.762;2022-08-11T13:37:53;30.80;81.00
8557;DHT22;4316;53.840;10.762;2022-08-11T13:40:21;30.80;81.50
8557;DHT22;4316;53.840;10.762;2022-08-11T13:42:48;31.00;81.80
8557;DHT22;4316;53.840;10.762;2022-08-11T13:45:15;31.10;81.80
8557;DHT22;4316;53.840;10.762;2022-08-11T13:47:41;31.10;81.20
8557;DHT22;4316;53.840;10.762;2022-08-11T13:50:08;31.10;82.30
8557;DHT22;4316;53.840;10.762;2022-08-11T13:52:36;30.80;81.00
8557;DHT22;4316;53.840;10.762;2022-08-11T13:55:09;30.60;81.80
8557;DHT22;4316;53.840;10.762;2022-08-11T13:57:35;30.80;82.50
8557;DHT22;4316;53.840;10.762;2022-08-11T14:00:05;30.90;82.90
8557;DHT22;4316;53.840;10.762;2022-08-11T14:02:40;30.70;83.30
8557;DHT22;4316;53.840;10.762;2022-08-11T14:05:15;30.90;82.80
8557;DHT22;4316;53.840;10.762;2022-08-11T14:07:49;30.70;83.20
8557;DHT22;4316;53.840;10.762;2022-08-11T14:10:18;30.50;82.50
8557;DHT22;4316;53.840;10.762;2022-08-11T14:12:52;30.40;83.30
8557;DHT22;4316;53.840;10.762;2022-08-11T14:15:41;30.10;83.20
8557;DHT22;4316;53.840;10.762;2022-08-11T14:18:16;30.10;83.90
8557;DHT22;4316;53.840;10.762;2022-08-11T14:20:43;29.90;83.80
8557;DHT22;4316;53.840;10.762;2022-08-11T14:23:41;29.90;84.00
8557;DHT22;4316;53.840;10.762;2022-08-11T14:26:11;30.00;84.00
8557;DHT22;4316;53.840;10.762;2022-08-11T14:29:06;30.00;84.50
8557;DHT22;4316;53.840;10.762;2022-08-11T14:31:34;30.30;83.40
8557;DHT22;4316;53.840;10.762;2022-08-11T14:34:03;30.10;84.10
8557;DHT22;4316;53.840;10.762;2022-08-11T14:36:33;29.90;83.20
8557;DHT22;4316;53.840;10.762;2022-08-11T14:39:03;29.90;84.50
8557;DHT22;4316;53.840;10.762;2022-08-11T14:41:30;29.80;83.70
8557;DHT22;4316;53.840;10.762;2022-08-11T14:44:14;29.70;84.70
8557;DHT22;4316;53.840;10.762;2022-08-11T14:47:00;29.90;84.50
8557;DHT22;4316;53.840;10.762;2022-08-11T14:49:32;30.00;84.30
8557;DHT22;4316;53.840;10.762;2022-08-11T14:52:01;29.90;83.60
8557;DHT22;4316;53.840;10.762;2022-08-11T14:54:29;29.60;83.50
8557;DHT22;4316;53.840;10.762;2022-08-11T14:57:15;29.60;85.10
8557;DHT22;4316;53.840;10.762;2022-08-11T14:59:42;29.70;84.30
8557;DHT22;4316;53.840;10.762;2022-08-11T15:02:09;29.70;84.10
8557;DHT22;4316;53.840;10.762;2022-08-11T15:04:54;29.50;84.40
8557;DHT22;4316;53.840;10.762;2022-08-11T15:07:22;29.50;84.60
8557;DHT22;4316;53.840;10.762;2022-08-11T15:09:56;29.60;85.00
8557;DHT22;4316;53.840;10.762;2022-08-11T15:12:23;29.40;84.00
8557;DHT22;4316;53.840;10.762;2022-08-11T15:14:49;29.00;84.20
8557;DHT22;4316;53.840;10.762;2022-08-11T15:17:35;29.00;85.40
8557;DHT22;4316;53.840;10.762;2022-08-11T15:20:06;29.00;85.10
8557;DHT22;4316;53.840;10.762;2022-08-11T15:22:51;29.10;85.20
8557;DHT22;4316;53.840;10.762;2022-08-11T15:25:35;29.00;85.40
8557;DHT22;4316;53.840;10.762;2022-08-11T15:28:03;29.10;85.70
8557;DHT22;4316;53.840;10.762;2022-08-11T15:30:52;29.10;85.80
8557;DHT22;4316;53.840;10.762;2022-08-11T15:33:39;29.20;85.90
8557;DHT22;4316;53.840;10.762;2022-08-11T15:36:25;29.20;85.20
8557;DHT22;4316;53.840;10.762;2022-08-11T15:39:19;29.10;84.60
8557;DHT22;4316;53.840;10.762;2022-08-11T15:41:59;28.80;84.50
8557;DHT22;4316;53.840;10.762;2022-08-11T15:44:53;28.70;85.10
8557;DHT22;4316;53.840;10.762;2022-08-11T15:47:53;28.60;84.90
8557;DHT22;4316;53.840;10.762;2022-08-11T15:50:26;28.60;84.30
8557;DHT22;4316;53.840;10.762;2022-08-11T15:53:27;28.70;84.80
8557;DHT22;4316;53.840;10.762;2022-08-11T15:55:54;29.00;85.00
8557;DHT22;4316;53.840;10.762;2022-08-11T15:58:22;29.00;83.90
8557;DHT22;4316;53.840;10.762;2022-08-11T16:01:09;28.80;85.00
8557;DHT22;4316;53.840;10.762;2022-08-11T16:03:59;28.80;83.90
8557;DHT22;4316;53.840;10.762;2022-08-11T16:06:48;28.70;84.10
8557;DHT22;4316;53.840;10.762;2022-08-11T16:09:17;28.70;84.20
8557;DHT22;4316;53.840;10.762;2022-08-11T16:11:45;28.60;84.40
8557;DHT22;4316;53.840;10.762;2022-08-11T16:14:14;28.40;83.90
8557;DHT22;4316;53.840;10.762;2022-08-11T16:16:58;28.40;84.20
8557;DHT22;4316;53.840;10.762;2022-08-11T16:19:26;28.20;83.90
8557;DHT22;4316;53.840;10.762;2022-08-11T16:21:56;28.20;84.80
8557;DHT22;4316;53.840;10.762;2022-08-11T16:24:23;28.20;84.90
8557;DHT22;4316;53.840;10.762;2022-08-11T16:26:50;28.30;84.80
8557;DHT22;4316;53.840;10.762;2022-08-11T16:29:18;28.10;84.50
8557;DHT22;4316;53.840;10.762;2022-08-11T16:31:46;28.10;84.90
8557;DHT22;4316;53.840;10.762;2022-08-11T16:34:33;28.00;84.80
8557;DHT22;4316;53.840;10.762;2022-08-11T16:37:20;28.00;84.30
8557;DHT22;4316;53.840;10.762;2022-08-11T16:40:07;28.00;84.50
8557;DHT22;4316;53.840;10.762;2022-08-11T16:42:34;28.00;84.40
8557;DHT22;4316;53.840;10.762;2022-08-11T16:45:18;27.80;85.10
8557;DHT22;4316;53.840;10.762;2022-08-11T16:48:05;27.70;85.80
8557;DHT22;4316;53.840;10.762;2022-08-11T16:50:36;27.70;86.00
8557;DHT22;4316;53.840;10.762;2022-08-11T16:53:02;27.60;86.20
8557;DHT22;4316;53.840;10.762;2022-08-11T16:55:27;27.60;86.70
8557;DHT22;4316;53.840;10.762;2022-08-11T16:57:58;27.60;86.40
8557;DHT22;4316;53.840;10.762;2022-08-11T17:00:44;27.40;86.50
8557;DHT22;4316;53.840;10.762;2022-08-11T17:03:11;27.50;87.50
8557;DHT22;4316;53.840;10.762;2022-08-11T17:05:56;27.50;87.60
8557;DHT22;4316;53.840;10.762;2022-08-11T17:08:47;27.60;88.10
8557;DHT22;4316;53.840;10.762;2022-08-11T17:11:41;27.50;88.30
8557;DHT22;4316;53.840;10.762;2022-08-11T17:14:48;27.60;88.30
8557;DHT22;4316;53.840;10.762;2022-08-11T17:17:37;27.50;88.60
8557;DHT22;4316;53.840;10.762;2022-08-11T17:20:06;27.60;88.00
8557;DHT22;4316;53.840;10.762;2022-08-11T17:22:36;27.30;87.40
8557;DHT22;4316;53.840;10.762;2022-08-11T17:25:23;27.10;87.90
8557;DHT22;4316;53.840;10.762;2022-08-11T17:27:51;27.00;88.50
8557;DHT22;4316;53.840;10.762;2022-08-11T17:30:18;27.00;89.50
8557;DHT22;4316;53.840;10.762;2022-08-11T17:32:48;27.10;88.70
8557;DHT22;4316;53.840;10.762;2022-08-11T17:35:36;26.90;86.30
8557;DHT22;4316;53.840;10.762;2022-08-11T17:38:19;26.70;87.20
8557;DHT22;4316;53.840;10.762;2022-08-11T17:40:53;26.60;87.20
8557;DHT22;4316;53.840;10.762;2022-08-11T17:43:39;26.70;88.40
8557;DHT22;4316;53.840;10.762;2022-08-11T17:46:24;26.70;88.30
8557;DHT22;4316;53.840;10.762;2022-08-11T17:49:11;26.70;88.80
8557;DHT22;4316;53.840;10.762;2022-08-11T17:51:38;26.80;88.60
8557;DHT22;4316;53.840;10.762;2022-08-11T17:54:24;26.90;88.80
8557;DHT22;4316;53.840;10.762;2022-08-11T17:57:09;26.80;90.10
8557;DHT22;4316;53.840;10.762;2022-08-11T17:59:55;26.80;89.40
8557;DHT22;4316;53.840;10.762;2022-08-11T18:02:40;26.80;89.60
8557;DHT22;4316;53.840;10.762;2022-08-11T18:05:29;26.70;89.50
8557;DHT22;4316;53.840;10.762;2022-08-11T18:07:57;26.50;90.00
8557;DHT22;4316;53.840;10.762;2022-08-11T18:10:43;26.50;90.50
8557;DHT22;4316;53.840;10.762;2022-08-11T18:13:30;26.50;90.90
8557;DHT22;4316;53.840;10.762;2022-08-11T18:16:14;26.50;91.40
8557;DHT22;4316;53.840;10.762;2022-08-11T18:18:59;26.40;92.20
8557;DHT22;4316;53.840;10.762;2022-08-11T18:21:44;26.40;92.40
8557;DHT22;4316;53.840;10.762;2022-08-11T18:24:45;26.30;92.30
8557;DHT22;4316;53.840;10.762;2022-08-11T18:27:32;26.20;91.40
8557;DHT22;4316;53.840;10.762;2022-08-11T18:30:17;26.00;91.50
8557;DHT22;4316;53.840;10.762;2022-08-11T18:33:04;25.80;91.40
8557;DHT22;4316;53.840;10.762;2022-08-11T18:35:54;25.70;91.90
8557;DHT22;4316;53.840;10.762;2022-08-11T18:38:42;25.70;92.30
8557;DHT22;4316;53.840;10.762;2022-08-11T18:41:31;25.70;92.50
8557;DHT22;4316;53.840;10.762;2022-08-11T18:44:19;25.60;93.00
8557;DHT22;4316;53.840;10.762;2022-08-11T18:47:08;25.50;92.90
8557;DHT22;4316;53.840;10.762;2022-08-11T18:49:53;25.40;93.50
8557;DHT22;4316;53.840;10.762;2022-08-11T18:52:40;25.50;93.30
8557;DHT22;4316;53.840;10.762;2022-08-11T18:55:27;25.50;93.30
8557;DHT22;4316;53.840;10.762;2022-08-11T18:58:16;25.50;93.80
8557;DHT22;4316;53.840;10.762;2022-08-11T19:01:04;25.40;93.80
8557;DHT22;4316;53.840;10.762;2022-08-11T19:03:51;25.40;93.80
8557;DHT22;4316;53.840;10.762;2022-08-11T19:06:37;25.40;93.90
8557;DHT22;4316;53.840;10.762;2022-08-11T19:09:23;25.40;94.30
8557;DHT22;4316;53.840;10.762;2022-08-11T19:12:09;25.30;94.30
8557;DHT22;4316;53.840;10.762;2022-08-11T19:14:56;25.20;94.00